sensor_id;sensor_type;location;lat;lon;timestamp;temperature;humidity
21207;DHT22;10761;48.532;8.026;2023-03-23T00:02:06;14.50;1.00
21207;DHT22;10761;48.532;8.026;2023-03-23T00:04:32;14.40;1.00
21207;DHT22;10761;48.532;8.026;2023-03-23T00:06:58;14.40;1.00
21207;DHT22;10761;48.532;8.026;2023-03-23T00:09:26;14.40;1.00
21207;DHT22;10761;48.532;8.026;2023-03-23T00:11:52;14.40;1.00
21207;DHT22;10761;48.532;8.026;2023-03-23T00:14:23;14.50;1.00
21207;DHT22;10761;48.532;8.026;2023-03-23T00:16:49;14.60;99.90
21207;DHT22;10761;48.532;8.026;2023-03-23T00:19:16;14.60;99.90
21207;DHT22;10761;48.532;8.026;2023-03-23T00:21:44;14.70;99.90
21207;DHT22;10761;48.532;8.026;2023-03-23T00:24:15;14.70;99.90
21207;DHT22;10761;48.532;8.026;2023-03-23T00:26:45;14.80;99.90
21207;DHT22;10761;48.532;8.026;2023-03-23T00:29:18;14.80;99.90
21207;DHT22;10761;48.532;8.026;2023-03-23T00:31:46;14.90;99.90
21207;DHT22;10761;48.532;8.026;2023-03-23T00:34:20;14.90;99.90
21207;DHT22;10761;48.532;8.026;2023-03-23T00:36:48;15.00;99.90
21207;DHT22;10761;48.532;8.026;2023-03-23T00:39:15;14.90;99.90
21207;DHT22;10761;48.532;8.026;2023-03-23T00:41:44;14.90;99.90
21207;DHT22;10761;48.532;8.026;2023-03-23T00:44:10;14.90;99.90
21207;DHT22;10761;48.532;8.026;2023-03-23T00:46:46;14.90;99.90
21207;DHT22;10761;48.532;8.026;2023-03-23T00:49:16;14.90;99.90
21207;DHT22;10761;48.532;8.026;2023-03-23T00:51:42;14.90;99.90
21207;DHT22;10761;48.532;8.026;2023-03-23T00:54:08;14.90;99.90
21207;DHT22;10761;48.532;8.026;2023-03-23T00:56:34;15.00;99.90
21207;DHT22;10761;48.532;8.026;2023-03-23T00:59:01;15.00;99.90
21207;DHT22;10761;48.532;8.026;2023-03-23T01:01:26;15.00;99.90
21207;DHT22;10761;48.532;8.026;2023-03-23T01:03:52;15.10;99.90
21207;DHT22;10761;48.532;8.026;2023-03-23T01:06:27;15.10;99.90
21207;DHT22;10761;48.532;8.026;2023-03-23T01:08:53;15.10;99.90
21207;DHT22;10761;48.532;8.026;2023-03-23T01:11:20;15.00;99.90
21207;DHT22;10761;48.532;8.026;2023-03-23T01:13:45;15.10;99.90
21207;DHT22;10761;48.532;8.026;2023-03-23T01:16:11;15.10;99.90
21207;DHT22;10761;48.532;8.026;2023-03-23T01:18:38;15.10;99.90
21207;DHT22;10761;48.532;8.026;2023-03-23T01:21:12;15.10;99.90
21207;DHT22;10761;48.532;8.026;2023-03-23T01:23:38;15.10;99.90
21207;DHT22;10761;48.532;8.026;2023-03-23T01:26:10;15.10;99.90
21207;DHT22;10761;48.532;8.026;2023-03-23T01:28:36;15.20;99.90
21207;DHT22;10761;48.532;8.026;2023-03-23T01:31:04;15.20;99.90
21207;DHT22;10761;48.532;8.026;2023-03-23T01:33:31;15.20;99.90
21207;DHT22;10761;48.532;8.026;2023-03-23T01:35:57;15.20;99.90
21207;DHT22;10761;48.532;8.026;2023-03-23T01:38:22;15.20;99.90
21207;DHT22;10761;48.532;8.026;2023-03-23T01:40:48;15.20;99.90
21207;DHT22;10761;48.532;8.026;2023-03-23T01:43:15;15.30;99.90
21207;DHT22;10761;48.532;8.026;2023-03-23T01:45:41;15.30;99.90
21207;DHT22;10761;48.532;8.026;2023-03-23T01:48:17;15.30;99.90
21207;DHT22;10761;48.532;8.026;2023-03-23T01:50:59;15.20;99.90
21207;DHT22;10761;48.532;8.026;2023-03-23T01:53:31;15.20;99.90
21207;DHT22;10761;48.532;8.026;2023-03-23T01:55:59;15.30;99.90
21207;DHT22;10761;48.532;8.026;2023-03-23T01:58:29;15.20;99.90
21207;DHT22;10761;48.532;8.026;2023-03-23T02:00:57;15.20;99.90
21207;DHT22;10761;48.532;8.026;2023-03-23T02:03:26;15.30;99.90
21207;DHT22;10761;48.532;8.026;2023-03-23T02:05:53;15.30;99.90
21207;DHT22;10761;48.532;8.026;2023-03-23T02:08:20;15.30;99.90
21207;DHT22;10761;48.532;8.026;2023-03-23T02:10:46;15.30;99.90
21207;DHT22;10761;48.532;8.026;2023-03-23T02:13:13;15.40;99.90
21207;DHT22;10761;48.532;8.026;2023-03-23T02:15:54;15.40;99.90
21207;DHT22;10761;48.532;8.026;2023-03-23T02:29:22;15.50;99.90
21207;DHT22;10761;48.532;8.026;2023-03-23T02:32:12;15.50;99.90
21207;DHT22;10761;48.532;8.026;2023-03-23T02:34:51;15.60;99.90
21207;DHT22;10761;48.532;8.026;2023-03-23T02:37:39;15.60;99.90
21207;DHT22;10761;48.532;8.026;2023-03-23T02:40:23;15.60;99.90
21207;DHT22;10761;48.532;8.026;2023-03-23T02:42:53;15.60;99.90
21207;DHT22;10761;48.532;8.026;2023-03-23T02:45:21;15.70;99.90
21207;DHT22;10761;48.532;8.026;2023-03-23T02:47:49;15.70;99.90
21207;DHT22;10761;48.532;8.026;2023-03-23T02:50:18;15.60;99.90
21207;DHT22;10761;48.532;8.026;2023-03-23T02:52:46;15.70;99.90
21207;DHT22;10761;48.532;8.026;2023-03-23T02:55:14;15.70;99.90
21207;DHT22;10761;48.532;8.026;2023-03-23T02:57:41;15.70;99.90
21207;DHT22;10761;48.532;8.026;2023-03-23T03:00:13;15.80;99.90
21207;DHT22;10761;48.532;8.026;2023-03-23T03:02:43;15.80;99.90
21207;DHT22;10761;48.532;8.026;2023-03-23T03:07:58;15.80;99.90
21207;DHT22;10761;48.532;8.026;2023-03-23T03:10:40;15.90;99.90
21207;DHT22;10761;48.532;8.026;2023-03-23T03:15:55;15.90;99.90
21207;DHT22;10761;48.532;8.026;2023-03-23T03:18:26;15.90;99.90
21207;DHT22;10761;48.532;8.026;2023-03-23T03:21:07;15.90;99.90
21207;DHT22;10761;48.532;8.026;2023-03-23T03:23:34;16.00;99.90
21207;DHT22;10761;48.532;8.026;2023-03-23T03:26:02;16.00;99.90
21207;DHT22;10761;48.532;8.026;2023-03-23T03:28:30;16.00;99.90
21207;DHT22;10761;48.532;8.026;2023-03-23T03:30:58;16.00;99.90
21207;DHT22;10761;48.532;8.026;2023-03-23T03:33:26;16.00;99.90
21207;DHT22;10761;48.532;8.026;2023-03-23T03:36:00;15.90;99.90
21207;DHT22;10761;48.532;8.026;2023-03-23T03:38:27;16.00;99.90
21207;DHT22;10761;48.532;8.026;2023-03-23T03:40:53;16.00;99.90
21207;DHT22;10761;48.532;8.026;2023-03-23T03:43:19;16.00;99.90
21207;DHT22;10761;48.532;8.026;2023-03-23T03:45:45;16.00;99.90
21207;DHT22;10761;48.532;8.026;2023-03-23T03:48:11;16.00;99.90
21207;DHT22;10761;48.532;8.026;2023-03-23T03:50:38;16.10;99.90
21207;DHT22;10761;48.532;8.026;2023-03-23T03:53:04;16.20;99.90
21207;DHT22;10761;48.532;8.026;2023-03-23T03:55:31;16.20;99.90
21207;DHT22;10761;48.532;8.026;2023-03-23T03:58:03;16.30;99.90
21207;DHT22;10761;48.532;8.026;2023-03-23T04:00:30;16.20;99.90
21207;DHT22;10761;48.532;8.026;2023-03-23T04:02:56;16.30;99.90
21207;DHT22;10761;48.532;8.026;2023-03-23T04:05:22;16.30;99.90
21207;DHT22;10761;48.532;8.026;2023-03-23T04:07:49;16.30;99.90
21207;DHT22;10761;48.532;8.026;2023-03-23T04:10:17;16.30;99.90
21207;DHT22;10761;48.532;8.026;2023-03-23T04:12:45;16.30;99.90
21207;DHT22;10761;48.532;8.026;2023-03-23T04:15:11;16.20;99.90
21207;DHT22;10761;48.532;8.026;2023-03-23T04:17:37;16.10;99.90
21207;DHT22;10761;48.532;8.026;2023-03-23T04:20:04;16.10;99.90
21207;DHT22;10761;48.532;8.026;2023-03-23T04:22:38;16.10;99.90
21207;DHT22;10761;48.532;8.026;2023-03-23T04:25:04;16.10;99.90
21207;DHT22;10761;48.532;8.026;2023-03-23T04:27:31;16.10;99.90
21207;DHT22;10761;48.532;8.026;2023-03-23T04:29:58;16.10;99.90
21207;DHT22;10761;48.532;8.026;2023-03-23T04:32:27;16.10;99.90
21207;DHT22;10761;48.532;8.026;2023-03-23T04:34:55;16.10;99.90
21207;DHT22;10761;48.532;8.026;2023-03-23T04:37:22;16.00;99.90
21207;DHT22;10761;48.532;8.026;2023-03-23T04:39:51;15.90;99.90
21207;DHT22;10761;48.532;8.026;2023-03-23T04:42:28;15.80;99.90
21207;DHT22;10761;48.532;8.026;2023-03-23T04:44:56;15.70;99.90
21207;DHT22;10761;48.532;8.026;2023-03-23T04:47:21;15.70;99.90
21207;DHT22;10761;48.532;8.026;2023-03-23T04:49:47;15.60;99.90
21207;DHT22;10761;48.532;8.026;2023-03-23T04:52:13;15.60;99.90
21207;DHT22;10761;48.532;8.026;2023-03-23T04:54:39;15.50;99.90
21207;DHT22;10761;48.532;8.026;2023-03-23T04:57:05;15.50;99.90
21207;DHT22;10761;48.532;8.026;2023-03-23T04:59:30;15.40;99.90
21207;DHT22;10761;48.532;8.026;2023-03-23T05:01:57;15.40;99.90
21207;DHT22;10761;48.532;8.026;2023-03-23T05:04:22;15.30;99.90
21207;DHT22;10761;48.532;8.026;2023-03-23T05:06:51;15.30;99.90
21207;DHT22;10761;48.532;8.026;2023-03-23T05:09:17;15.20;99.90
21207;DHT22;10761;48.532;8.026;2023-03-23T05:11:42;15.20;99.90
21207;DHT22;10761;48.532;8.026;2023-03-23T05:14:08;15.10;99.90
21207;DHT22;10761;48.532;8.026;2023-03-23T05:16:34;15.10;99.90
21207;DHT22;10761;48.532;8.026;2023-03-23T05:19:02;15.00;99.90
21207;DHT22;10761;48.532;8.026;2023-03-23T05:21:27;15.00;99.90
21207;DHT22;10761;48.532;8.026;2023-03-23T05:23:53;14.90;99.90
21207;DHT22;10761;48.532;8.026;2023-03-23T05:26:22;14.90;99.90
21207;DHT22;10761;48.532;8.026;2023-03-23T05:28:54;14.80;99.90
21207;DHT22;10761;48.532;8.026;2023-03-23T05:31:21;14.80;99.90
21207;DHT22;10761;48.532;8.026;2023-03-23T05:33:46;14.70;99.90
21207;DHT22;10761;48.532;8.026;2023-03-23T05:36:12;14.70;99.90
21207;DHT22;10761;48.532;8.026;2023-03-23T05:38:41;14.60;99.90
21207;DHT22;10761;48.532;8.026;2023-03-23T05:41:11;14.50;99.90
21207;DHT22;10761;48.532;8.026;2023-03-23T05:43:37;14.50;99.90
21207;DHT22;10761;48.532;8.026;2023-03-23T05:46:03;14.40;99.90
21207;DHT22;10761;48.532;8.026;2023-03-23T05:48:29;14.20;99.90
21207;DHT22;10761;48.532;8.026;2023-03-23T05:50:54;14.20;99.90
21207;DHT22;10761;48.532;8.026;2023-03-23T05:53:20;14.10;1.00
21207;DHT22;10761;48.532;8.026;2023-03-23T05:55:46;14.00;1.00
21207;DHT22;10761;48.532;8.026;2023-03-23T05:58:12;13.90;1.00
21207;DHT22;10761;48.532;8.026;2023-03-23T06:00:37;13.90;1.00
21207;DHT22;10761;48.532;8.026;2023-03-23T06:03:04;13.80;1.00
21207;DHT22;10761;48.532;8.026;2023-03-23T06:05:30;13.70;1.00
21207;DHT22;10761;48.532;8.026;2023-03-23T06:07:55;13.70;99.90
21207;DHT22;10761;48.532;8.026;2023-03-23T06:10:21;13.60;1.00
21207;DHT22;10761;48.532;8.026;2023-03-23T06:12:49;13.50;99.90
21207;DHT22;10761;48.532;8.026;2023-03-23T06:15:16;13.40;1.00
21207;DHT22;10761;48.532;8.026;2023-03-23T06:17:41;13.40;99.90
21207;DHT22;10761;48.532;8.026;2023-03-23T06:20:07;13.50;1.00
21207;DHT22;10761;48.532;8.026;2023-03-23T06:22:38;13.50;99.90
21207;DHT22;10761;48.532;8.026;2023-03-23T06:25:06;13.50;99.90
21207;DHT22;10761;48.532;8.026;2023-03-23T06:27:32;13.50;1.00
21207;DHT22;10761;48.532;8.026;2023-03-23T06:29:58;13.50;99.90
21207;DHT22;10761;48.532;8.026;2023-03-23T06:32:25;13.60;99.90
21207;DHT22;10761;48.532;8.026;2023-03-23T06:34:51;13.60;99.90
21207;DHT22;10761;48.532;8.026;2023-03-23T06:37:17;13.50;99.90
21207;DHT22;10761;48.532;8.026;2023-03-23T06:39:43;13.50;99.90
21207;DHT22;10761;48.532;8.026;2023-03-23T06:42:10;13.50;99.90
21207;DHT22;10761;48.532;8.026;2023-03-23T06:44:36;13.50;99.90
21207;DHT22;10761;48.532;8.026;2023-03-23T06:47:03;13.50;1.00
21207;DHT22;10761;48.532;8.026;2023-03-23T06:49:29;13.50;1.00
21207;DHT22;10761;48.532;8.026;2023-03-23T06:51:54;13.50;1.00
21207;DHT22;10761;48.532;8.026;2023-03-23T06:54:21;13.40;1.00
21207;DHT22;10761;48.532;8.026;2023-03-23T06:56:47;13.30;1.00
21207;DHT22;10761;48.532;8.026;2023-03-23T06:59:13;13.30;1.00
21207;DHT22;10761;48.532;8.026;2023-03-23T07:01:39;13.30;1.00
21207;DHT22;10761;48.532;8.026;2023-03-23T07:04:05;13.30;1.00
21207;DHT22;10761;48.532;8.026;2023-03-23T07:06:31;13.30;1.00
21207;DHT22;10761;48.532;8.026;2023-03-23T07:08:57;13.30;1.00
21207;DHT22;10761;48.532;8.026;2023-03-23T07:11:23;13.30;1.00
21207;DHT22;10761;48.532;8.026;2023-03-23T07:13:49;13.20;1.00
21207;DHT22;10761;48.532;8.026;2023-03-23T07:16:16;13.20;1.00
21207;DHT22;10761;48.532;8.026;2023-03-23T07:18:42;13.20;79.40
21207;DHT22;10761;48.532;8.026;2023-03-23T07:21:07;13.20;1.00
21207;DHT22;10761;48.532;8.026;2023-03-23T07:23:33;13.20;1.00
21207;DHT22;10761;48.532;8.026;2023-03-23T07:25:59;13.30;99.90
21207;DHT22;10761;48.532;8.026;2023-03-23T07:28:24;13.30;99.90
21207;DHT22;10761;48.532;8.026;2023-03-23T07:30:51;13.30;1.00
21207;DHT22;10761;48.532;8.026;2023-03-23T07:33:18;13.30;10.00
21207;DHT22;10761;48.532;8.026;2023-03-23T07:35:43;13.30;1.00
21207;DHT22;10761;48.532;8.026;2023-03-23T07:38:09;13.20;1.00
21207;DHT22;10761;48.532;8.026;2023-03-23T07:40:35;13.20;1.00
21207;DHT22;10761;48.532;8.026;2023-03-23T07:43:02;13.20;99.90
21207;DHT22;10761;48.532;8.026;2023-03-23T07:45:28;13.20;3.10
21207;DHT22;10761;48.532;8.026;2023-03-23T07:47:54;13.10;69.80
21207;DHT22;10761;48.532;8.026;2023-03-23T07:50:20;13.10;1.00
21207;DHT22;10761;48.532;8.026;2023-03-23T07:52:48;13.00;1.00
21207;DHT22;10761;48.532;8.026;2023-03-23T07:55:13;13.00;99.90
21207;DHT22;10761;48.532;8.026;2023-03-23T07:57:44;13.00;1.00
21207;DHT22;10761;48.532;8.026;2023-03-23T08:00:10;13.20;1.00
21207;DHT22;10761;48.532;8.026;2023-03-23T08:02:45;13.20;99.90
21207;DHT22;10761;48.532;8.026;2023-03-23T08:05:11;13.20;99.90
21207;DHT22;10761;48.532;8.026;2023-03-23T08:07:38;13.30;99.90
21207;DHT22;10761;48.532;8.026;2023-03-23T08:10:05;13.40;99.90
21207;DHT22;10761;48.532;8.026;2023-03-23T08:12:35;13.40;99.90
21207;DHT22;10761;48.532;8.026;2023-03-23T08:15:01;13.40;99.90
21207;DHT22;10761;48.532;8.026;2023-03-23T08:17:26;13.50;1.00
21207;DHT22;10761;48.532;8.026;2023-03-23T08:19:52;13.60;1.00
21207;DHT22;10761;48.532;8.026;2023-03-23T08:22:18;13.60;1.00
21207;DHT22;10761;48.532;8.026;2023-03-23T08:24:43;13.60;99.90
21207;DHT22;10761;48.532;8.026;2023-03-23T08:27:09;13.60;99.90
21207;DHT22;10761;48.532;8.026;2023-03-23T08:29:35;13.60;31.70
21207;DHT22;10761;48.532;8.026;2023-03-23T08:32:01;13.60;99.90
21207;DHT22;10761;48.532;8.026;2023-03-23T08:34:28;13.70;99.90
21207;DHT22;10761;48.532;8.026;2023-03-23T08:36:54;13.70;99.90
21207;DHT22;10761;48.532;8.026;2023-03-23T08:39:20;13.90;99.90
21207;DHT22;10761;48.532;8.026;2023-03-23T08:41:48;13.90;99.90
21207;DHT22;10761;48.532;8.026;2023-03-23T08:44:14;13.90;99.90
21207;DHT22;10761;48.532;8.026;2023-03-23T08:46:40;13.90;2.50
21207;DHT22;10761;48.532;8.026;2023-03-23T08:49:05;13.80;99.90
21207;DHT22;10761;48.532;8.026;2023-03-23T08:51:32;13.80;99.90
21207;DHT22;10761;48.532;8.026;2023-03-23T08:53:57;13.80;99.90
21207;DHT22;10761;48.532;8.026;2023-03-23T08:56:24;13.70;85.20
21207;DHT22;10761;48.532;8.026;2023-03-23T08:58:49;13.70;1.00
21207;DHT22;10761;48.532;8.026;2023-03-23T09:01:15;13.70;1.00
21207;DHT22;10761;48.532;8.026;2023-03-23T09:03:41;13.70;1.00
21207;DHT22;10761;48.532;8.026;2023-03-23T09:06:08;13.80;26.90
21207;DHT22;10761;48.532;8.026;2023-03-23T09:08:34;13.80;1.00
21207;DHT22;10761;48.532;8.026;2023-03-23T09:11:06;13.90;16.50
21207;DHT22;10761;48.532;8.026;2023-03-23T09:13:33;14.00;1.00
21207;DHT22;10761;48.532;8.026;2023-03-23T09:16:00;14.10;1.00
21207;DHT22;10761;48.532;8.026;2023-03-23T09:18:25;14.10;1.00
21207;DHT22;10761;48.532;8.026;2023-03-23T09:20:52;14.20;1.00
21207;DHT22;10761;48.532;8.026;2023-03-23T09:23:18;14.30;33.20
21207;DHT22;10761;48.532;8.026;2023-03-23T09:25:43;14.40;99.90
21207;DHT22;10761;48.532;8.026;2023-03-23T09:28:09;14.60;1.00
21207;DHT22;10761;48.532;8.026;2023-03-23T09:30:36;14.80;1.00
21207;DHT22;10761;48.532;8.026;2023-03-23T09:33:03;14.90;1.00
21207;DHT22;10761;48.532;8.026;2023-03-23T09:35:31;15.00;1.00
21207;DHT22;10761;48.532;8.026;2023-03-23T09:37:58;15.20;1.00
21207;DHT22;10761;48.532;8.026;2023-03-23T09:40:48;15.40;1.00
21207;DHT22;10761;48.532;8.026;2023-03-23T09:43:29;15.40;1.00
21207;DHT22;10761;48.532;8.026;2023-03-23T09:46:24;15.50;1.00
21207;DHT22;10761;48.532;8.026;2023-03-23T09:48:53;15.60;1.00
21207;DHT22;10761;48.532;8.026;2023-03-23T09:51:45;15.70;1.00
21207;DHT22;10761;48.532;8.026;2023-03-23T09:57:01;15.80;1.00
21207;DHT22;10761;48.532;8.026;2023-03-23T10:02:15;16.00;1.00
21207;DHT22;10761;48.532;8.026;2023-03-23T10:04:47;16.10;99.90
21207;DHT22;10761;48.532;8.026;2023-03-23T10:07:18;16.20;99.90
21207;DHT22;10761;48.532;8.026;2023-03-23T10:09:47;16.30;99.90
21207;DHT22;10761;48.532;8.026;2023-03-23T10:12:40;16.30;99.90
21207;DHT22;10761;48.532;8.026;2023-03-23T10:15:29;16.40;1.00
21207;DHT22;10761;48.532;8.026;2023-03-23T10:18:02;16.30;34.40
21207;DHT22;10761;48.532;8.026;2023-03-23T10:20:43;16.30;85.70
21207;DHT22;10761;48.532;8.026;2023-03-23T10:23:31;16.30;99.90
21207;DHT22;10761;48.532;8.026;2023-03-23T10:26:54;16.40;44.30
21207;DHT22;10761;48.532;8.026;2023-03-23T10:32:00;16.50;1.00
21207;DHT22;10761;48.532;8.026;2023-03-23T10:34:40;16.60;57.50
21207;DHT22;10761;48.532;8.026;2023-03-23T10:37:17;16.70;1.00
21207;DHT22;10761;48.532;8.026;2023-03-23T10:39:57;16.70;61.00
21207;DHT22;10761;48.532;8.026;2023-03-23T10:42:31;16.80;1.00
21207;DHT22;10761;48.532;8.026;2023-03-23T10:45:00;16.80;1.00
21207;DHT22;10761;48.532;8.026;2023-03-23T10:47:36;16.90;1.00
21207;DHT22;10761;48.532;8.026;2023-03-23T10:50:04;17.00;1.00
21207;DHT22;10761;48.532;8.026;2023-03-23T10:52:36;17.00;1.00
21207;DHT22;10761;48.532;8.026;2023-03-23T10:55:13;17.00;1.00
21207;DHT22;10761;48.532;8.026;2023-03-23T10:57:42;17.00;1.00
21207;DHT22;10761;48.532;8.026;2023-03-23T11:02:42;16.50;1.00
21207;DHT22;10761;48.532;8.026;2023-03-23T11:05:24;16.40;1.00
21207;DHT22;10761;48.532;8.026;2023-03-23T11:07:56;16.30;1.00
21207;DHT22;10761;48.532;8.026;2023-03-23T11:10:35;16.30;1.00
21207;DHT22;10761;48.532;8.026;2023-03-23T11:13:01;16.00;1.00
21207;DHT22;10761;48.532;8.026;2023-03-23T11:15:29;15.90;32.90
21207;DHT22;10761;48.532;8.026;2023-03-23T11:18:01;15.70;99.90
21207;DHT22;10761;48.532;8.026;2023-03-23T11:20:28;15.60;99.90
21207;DHT22;10761;48.532;8.026;2023-03-23T11:22:54;15.50;99.90
21207;DHT22;10761;48.532;8.026;2023-03-23T11:25:20;15.50;99.90
21207;DHT22;10761;48.532;8.026;2023-03-23T11:27:46;15.50;99.90
21207;DHT22;10761;48.532;8.026;2023-03-23T11:30:20;15.50;99.90
21207;DHT22;10761;48.532;8.026;2023-03-23T11:32:47;15.50;99.90
21207;DHT22;10761;48.532;8.026;2023-03-23T11:35:18;15.40;99.90
21207;DHT22;10761;48.532;8.026;2023-03-23T11:37:48;15.30;99.90
21207;DHT22;10761;48.532;8.026;2023-03-23T11:40:17;15.30;99.90
21207;DHT22;10761;48.532;8.026;2023-03-23T11:45:37;15.30;1.00
21207;DHT22;10761;48.532;8.026;2023-03-23T11:51:05;15.40;1.00
21207;DHT22;10761;48.532;8.026;2023-03-23T11:56:41;15.50;1.00
21207;DHT22;10761;48.532;8.026;2023-03-23T11:59:16;15.70;1.00
21207;DHT22;10761;48.532;8.026;2023-03-23T12:04:40;16.10;1.00
21207;DHT22;10761;48.532;8.026;2023-03-23T12:07:28;16.20;1.00
21207;DHT22;10761;48.532;8.026;2023-03-23T12:13:28;16.20;1.00
21207;DHT22;10761;48.532;8.026;2023-03-23T12:21:55;16.20;99.90
21207;DHT22;10761;48.532;8.026;2023-03-23T12:27:50;16.10;99.90
21207;DHT22;10761;48.532;8.026;2023-03-23T12:30:29;16.20;99.90
21207;DHT22;10761;48.532;8.026;2023-03-23T12:36:13;16.20;32.90
21207;DHT22;10761;48.532;8.026;2023-03-23T12:38:54;16.30;48.00
21207;DHT22;10761;48.532;8.026;2023-03-23T12:41:42;16.40;17.00
21207;DHT22;10761;48.532;8.026;2023-03-23T12:44:13;16.50;1.00
21207;DHT22;10761;48.532;8.026;2023-03-23T12:46:59;16.40;1.00
21207;DHT22;10761;48.532;8.026;2023-03-23T12:49:37;16.50;1.00
21207;DHT22;10761;48.532;8.026;2023-03-23T12:52:15;16.50;1.00
21207;DHT22;10761;48.532;8.026;2023-03-23T12:55:14;16.60;1.00
21207;DHT22;10761;48.532;8.026;2023-03-23T12:57:43;16.60;1.00
21207;DHT22;10761;48.532;8.026;2023-03-23T13:03:23;16.80;1.00
21207;DHT22;10761;48.532;8.026;2023-03-23T13:11:22;17.00;1.00
21207;DHT22;10761;48.532;8.026;2023-03-23T13:14:03;17.00;1.00
21207;DHT22;10761;48.532;8.026;2023-03-23T13:16:46;17.00;1.00
21207;DHT22;10761;48.532;8.026;2023-03-23T13:19:51;17.00;1.00
21207;DHT22;10761;48.532;8.026;2023-03-23T13:22:24;17.00;1.00
21207;DHT22;10761;48.532;8.026;2023-03-23T13:24:56;17.20;1.00
21207;DHT22;10761;48.532;8.026;2023-03-23T13:27:26;17.40;1.00
21207;DHT22;10761;48.532;8.026;2023-03-23T13:29:54;17.50;1.00
21207;DHT22;10761;48.532;8.026;2023-03-23T13:32:22;17.70;1.00
21207;DHT22;10761;48.532;8.026;2023-03-23T13:34:53;17.80;1.00
21207;DHT22;10761;48.532;8.026;2023-03-23T13:37:20;17.80;1.00
21207;DHT22;10761;48.532;8.026;2023-03-23T13:42:26;17.40;1.00
21207;DHT22;10761;48.532;8.026;2023-03-23T13:55:31;17.40;1.00
21207;DHT22;10761;48.532;8.026;2023-03-23T14:05:43;17.70;1.00
21207;DHT22;10761;48.532;8.026;2023-03-23T14:10:42;18.00;1.00
21207;DHT22;10761;48.532;8.026;2023-03-23T14:13:35;18.00;1.00
21207;DHT22;10761;48.532;8.026;2023-03-23T14:18:54;18.10;1.00
21207;DHT22;10761;48.532;8.026;2023-03-23T14:21:40;18.20;1.00
21207;DHT22;10761;48.532;8.026;2023-03-23T14:24:17;18.20;1.00
21207;DHT22;10761;48.532;8.026;2023-03-23T14:26:43;18.20;1.00
21207;DHT22;10761;48.532;8.026;2023-03-23T14:29:12;18.20;1.00
21207;DHT22;10761;48.532;8.026;2023-03-23T14:31:39;18.30;1.00
21207;DHT22;10761;48.532;8.026;2023-03-23T14:34:13;18.30;1.00
21207;DHT22;10761;48.532;8.026;2023-03-23T14:36:39;18.10;1.00
21207;DHT22;10761;48.532;8.026;2023-03-23T14:41:37;18.10;1.00
21207;DHT22;10761;48.532;8.026;2023-03-23T14:44:06;18.00;1.00
21207;DHT22;10761;48.532;8.026;2023-03-23T14:46:34;17.80;1.00
21207;DHT22;10761;48.532;8.026;2023-03-23T14:49:02;17.80;1.00
21207;DHT22;10761;48.532;8.026;2023-03-23T14:51:29;17.70;1.00
21207;DHT22;10761;48.532;8.026;2023-03-23T14:53:57;17.60;1.00
21207;DHT22;10761;48.532;8.026;2023-03-23T14:56:23;17.50;1.00
21207;DHT22;10761;48.532;8.026;2023-03-23T14:58:53;17.50;99.90
21207;DHT22;10761;48.532;8.026;2023-03-23T15:01:23;17.40;99.90
21207;DHT22;10761;48.532;8.026;2023-03-23T15:03:55;17.40;99.90
21207;DHT22;10761;48.532;8.026;2023-03-23T15:06:23;17.40;99.90
21207;DHT22;10761;48.532;8.026;2023-03-23T15:08:55;17.40;99.90
21207;DHT22;10761;48.532;8.026;2023-03-23T15:11:28;17.40;99.90
21207;DHT22;10761;48.532;8.026;2023-03-23T15:13:57;17.50;99.90
21207;DHT22;10761;48.532;8.026;2023-03-23T15:16:27;17.50;99.90
21207;DHT22;10761;48.532;8.026;2023-03-23T15:19:02;17.50;99.90
21207;DHT22;10761;48.532;8.026;2023-03-23T15:21:34;17.50;99.90
21207;DHT22;10761;48.532;8.026;2023-03-23T15:24:01;17.50;99.90
21207;DHT22;10761;48.532;8.026;2023-03-23T15:26:33;17.50;99.90
21207;DHT22;10761;48.532;8.026;2023-03-23T15:29:10;17.50;99.90
21207;DHT22;10761;48.532;8.026;2023-03-23T15:31:47;17.40;99.90
21207;DHT22;10761;48.532;8.026;2023-03-23T15:36:45;17.30;99.90
21207;DHT22;10761;48.532;8.026;2023-03-23T15:39:14;17.30;99.90
21207;DHT22;10761;48.532;8.026;2023-03-23T15:41:48;17.30;99.90
21207;DHT22;10761;48.532;8.026;2023-03-23T15:44:30;17.30;99.90
21207;DHT22;10761;48.532;8.026;2023-03-23T15:49:35;17.30;99.90
21207;DHT22;10761;48.532;8.026;2023-03-23T15:52:01;17.30;99.90
21207;DHT22;10761;48.532;8.026;2023-03-23T15:54:30;17.40;99.90
21207;DHT22;10761;48.532;8.026;2023-03-23T15:56:56;17.40;99.90
21207;DHT22;10761;48.532;8.026;2023-03-23T15:59:22;17.30;99.90
21207;DHT22;10761;48.532;8.026;2023-03-23T16:01:48;17.30;99.90
21207;DHT22;10761;48.532;8.026;2023-03-23T16:04:17;17.30;99.90
21207;DHT22;10761;48.532;8.026;2023-03-23T16:06:44;17.20;99.90
21207;DHT22;10761;48.532;8.026;2023-03-23T16:09:18;17.20;99.90
21207;DHT22;10761;48.532;8.026;2023-03-23T16:11:45;17.10;99.90
21207;DHT22;10761;48.532;8.026;2023-03-23T16:14:10;17.20;99.90
21207;DHT22;10761;48.532;8.026;2023-03-23T16:16:39;17.20;99.90
21207;DHT22;10761;48.532;8.026;2023-03-23T16:19:06;17.20;99.90
21207;DHT22;10761;48.532;8.026;2023-03-23T16:21:33;17.20;99.90
21207;DHT22;10761;48.532;8.026;2023-03-23T16:23:58;17.10;99.90
21207;DHT22;10761;48.532;8.026;2023-03-23T16:26:24;17.10;99.90
21207;DHT22;10761;48.532;8.026;2023-03-23T16:28:50;17.00;99.90
21207;DHT22;10761;48.532;8.026;2023-03-23T16:31:16;17.00;99.90
21207;DHT22;10761;48.532;8.026;2023-03-23T16:33:41;17.10;99.90
21207;DHT22;10761;48.532;8.026;2023-03-23T16:36:10;17.10;99.90
21207;DHT22;10761;48.532;8.026;2023-03-23T16:38:36;17.10;99.90
21207;DHT22;10761;48.532;8.026;2023-03-23T16:41:02;17.00;99.90
21207;DHT22;10761;48.532;8.026;2023-03-23T16:43:28;17.00;99.90
21207;DHT22;10761;48.532;8.026;2023-03-23T16:45:55;17.10;99.90
21207;DHT22;10761;48.532;8.026;2023-03-23T16:48:21;17.10;99.90
21207;DHT22;10761;48.532;8.026;2023-03-23T16:50:48;17.10;99.90
21207;DHT22;10761;48.532;8.026;2023-03-23T16:53:13;17.10;99.90
21207;DHT22;10761;48.532;8.026;2023-03-23T16:55:39;17.10;99.90
21207;DHT22;10761;48.532;8.026;2023-03-23T16:58:06;17.10;99.90
21207;DHT22;10761;48.532;8.026;2023-03-23T17:00:32;17.10;99.90
21207;DHT22;10761;48.532;8.026;2023-03-23T17:02:58;17.00;99.90
21207;DHT22;10761;48.532;8.026;2023-03-23T17:05:26;17.10;99.90
21207;DHT22;10761;48.532;8.026;2023-03-23T17:07:52;17.10;99.90
21207;DHT22;10761;48.532;8.026;2023-03-23T17:10:23;17.10;99.90
21207;DHT22;10761;48.532;8.026;2023-03-23T17:12:49;17.10;99.90
21207;DHT22;10761;48.532;8.026;2023-03-23T17:15:15;17.10;99.90
21207;DHT22;10761;48.532;8.026;2023-03-23T17:17:41;17.10;99.90
21207;DHT22;10761;48.532;8.026;2023-03-23T17:20:07;17.00;99.90
21207;DHT22;10761;48.532;8.026;2023-03-23T17:22:35;17.00;99.90
21207;DHT22;10761;48.532;8.026;2023-03-23T17:25:00;17.10;99.90
21207;DHT22;10761;48.532;8.026;2023-03-23T17:27:26;17.10;99.90